createdAt,value
2023-02-14T00:00:01.535Z,16.98
2023-02-14T00:05:03.252Z,16.85
2023-02-14T00:10:05.342Z,16.33
2023-02-14T00:15:22.350Z,16.85
2023-02-14T00:20:24.295Z,16.40
2023-02-14T00:25:25.837Z,17.40
2023-02-14T00:30:27.542Z,17.02
2023-02-14T00:35:29.208Z,16.77
2023-02-14T00:40:30.757Z,17.50
2023-02-14T00:45:32.336Z,16.83
2023-02-14T00:50:33.991Z,16.33
2023-02-14T00:55:35.529Z,15.60
2023-02-14T01:00:37.093Z,15.45
2023-02-14T01:05:38.704Z,13.88
2023-02-14T01:10:40.613Z,14.07
2023-02-14T01:15:44.709Z,14.63
2023-02-14T01:20:46.452Z,14.15
2023-02-14T01:25:48.110Z,14.20
2023-02-14T01:30:51.772Z,14.45
2023-02-14T01:36:25.651Z,14.13
2023-02-14T01:41:29.262Z,13.95
2023-02-14T01:46:33.096Z,14.15
2023-02-14T01:51:35.760Z,14.95
2023-02-14T01:56:42.101Z,13.40
2023-02-14T02:01:44.309Z,15.15
2023-02-14T02:06:49.645Z,14.35
2023-02-14T02:11:51.224Z,15.00
2023-02-14T02:17:01.984Z,14.80
2023-02-14T02:22:22.251Z,15.23
2023-02-14T02:27:48.497Z,15.75
2023-02-14T02:33:15.860Z,14.77
2023-02-14T02:38:36.218Z,14.80
2023-02-14T02:43:59.636Z,15.15
2023-02-14T02:50:10.217Z,13.60
2023-02-14T02:55:17.888Z,13.80
2023-02-14T03:00:22.521Z,14.15
2023-02-14T03:05:24.636Z,14.57
2023-02-14T03:10:29.306Z,15.88
2023-02-14T03:15:52.432Z,14.15
2023-02-14T03:21:20.165Z,14.35
2023-02-14T03:26:27.394Z,14.50
2023-02-14T03:31:56.942Z,14.73
2023-02-14T03:37:10.923Z,13.52
2023-02-14T03:42:19.509Z,14.00
2023-02-14T03:47:25.042Z,14.63
2023-02-14T03:52:27.727Z,14.93
2023-02-14T03:57:35.094Z,15.07
2023-02-14T04:02:43.537Z,16.05
2023-02-14T04:07:47.699Z,16.25
2023-02-14T04:12:49.518Z,13.77
2023-02-14T04:18:09.453Z,15.63
2023-02-14T04:23:11.050Z,14.63
2023-02-14T04:28:13.036Z,14.63
2023-02-14T04:33:14.611Z,15.48
2023-02-14T04:38:16.169Z,14.95
2023-02-14T04:43:18.671Z,14.20
2023-02-14T04:48:20.272Z,10.85
2023-02-14T04:53:22.485Z,14.60
2023-02-14T04:58:24.101Z,14.15
2023-02-14T05:03:25.708Z,14.07
2023-02-14T05:08:27.299Z,15.73
2023-02-14T05:13:28.863Z,14.65
2023-02-14T05:18:30.415Z,15.00
2023-02-14T05:23:32.027Z,15.13
2023-02-14T05:28:33.923Z,14.57
2023-02-14T05:33:35.896Z,14.50
2023-02-14T05:38:37.492Z,12.52
2023-02-14T05:43:39.192Z,13.65
2023-02-14T05:48:40.922Z,13.45
2023-02-14T05:53:42.538Z,13.20
2023-02-14T05:58:44.143Z,11.95
2023-02-14T06:03:45.708Z,11.68
2023-02-14T06:08:47.320Z,12.05
2023-02-14T06:13:48.881Z,11.07
2023-02-14T06:18:50.495Z,11.82
2023-02-14T06:23:52.352Z,12.18
2023-02-14T06:28:55.385Z,11.48
2023-02-14T06:33:56.968Z,12.27
2023-02-14T06:38:58.532Z,12.85
2023-02-14T06:44:00.181Z,12.98
2023-02-14T06:49:01.755Z,12.88
2023-02-14T06:54:03.375Z,14.43
2023-02-14T06:59:05.739Z,14.75
2023-02-14T07:04:07.297Z,14.13
2023-02-14T07:09:08.865Z,13.77
2023-02-14T07:14:10.477Z,14.32
2023-02-14T07:19:12.075Z,14.48
2023-02-14T07:24:13.694Z,14.68
2023-02-14T07:29:15.306Z,13.32
2023-02-14T07:34:16.991Z,16.38
2023-02-14T07:39:18.609Z,16.80
2023-02-14T07:44:20.489Z,16.63
2023-02-14T07:49:22.341Z,16.65
2023-02-14T07:54:24.015Z,15.75
2023-02-14T07:59:26.161Z,15.02
2023-02-14T08:04:27.809Z,13.90
2023-02-14T08:09:29.399Z,13.90
2023-02-14T08:14:30.969Z,13.75
2023-02-14T08:19:32.687Z,13.60
2023-02-14T08:24:34.264Z,13.63
2023-02-14T08:29:35.832Z,13.18
2023-02-14T08:34:37.382Z,12.75
2023-02-14T08:39:39.620Z,13.57
2023-02-14T08:44:41.151Z,13.57
2023-02-14T08:49:42.759Z,13.05
2023-02-14T08:54:44.345Z,13.18
2023-02-14T08:59:45.956Z,12.88
2023-02-14T09:04:47.576Z,12.75
2023-02-14T09:09:49.148Z,13.02
2023-02-14T09:14:50.724Z,12.43
2023-02-14T09:19:52.343Z,11.75
2023-02-14T09:24:53.931Z,12.20
2023-02-14T09:29:55.557Z,11.30
2023-02-14T09:35:15.864Z,11.60
2023-02-14T09:40:19.326Z,9.88
2023-02-14T09:45:29.346Z,10.60
2023-02-14T09:50:35.328Z,9.30
2023-02-14T09:56:01.946Z,10.38
2023-02-14T10:01:09.663Z,9.75
2023-02-14T10:06:32.666Z,9.57
2023-02-14T10:11:34.547Z,9.63
2023-02-14T10:16:41.954Z,10.00
2023-02-14T10:21:56.989Z,9.65
2023-02-14T10:32:30.819Z,9.50
2023-02-14T10:37:48.244Z,9.25
2023-02-14T10:43:21.064Z,10.57
2023-02-14T10:48:42.892Z,9.77
2023-02-14T10:53:56.411Z,9.88
2023-02-14T10:58:59.305Z,10.23
2023-02-14T11:04:06.244Z,9.65
2023-02-14T11:09:10.071Z,13.18
2023-02-14T11:19:37.226Z,10.18
2023-02-14T11:24:41.493Z,10.57
2023-02-14T11:29:44.824Z,10.13
2023-02-14T11:34:52.536Z,10.10
2023-02-14T11:39:56.581Z,10.40
2023-02-14T11:44:59.501Z,9.70
2023-02-14T11:50:06.072Z,10.07
2023-02-14T11:55:07.649Z,10.45
2023-02-14T12:00:17.990Z,9.10
2023-02-14T12:05:21.489Z,9.32
2023-02-14T12:10:37.386Z,9.32
2023-02-14T12:15:56.307Z,9.85
2023-02-14T12:21:16.179Z,9.30
2023-02-14T12:26:49.361Z,9.38
2023-02-14T12:31:51.123Z,8.10
2023-02-14T12:37:11.078Z,8.52
2023-02-14T12:42:44.996Z,9.45
2023-02-14T12:47:54.701Z,8.93
2023-02-14T12:52:59.864Z,9.00
2023-02-14T12:58:21.604Z,8.43
2023-02-14T13:03:33.656Z,8.95
2023-02-14T13:08:53.173Z,8.52
2023-02-14T13:14:28.522Z,8.93
2023-02-14T13:19:41.939Z,9.25
2023-02-14T13:24:47.391Z,8.57
2023-02-14T13:29:54.970Z,9.00
2023-02-14T13:34:56.933Z,8.50
2023-02-14T13:40:02.210Z,8.02
2023-02-14T13:45:04.217Z,8.60
2023-02-14T13:50:06.436Z,8.88
2023-02-14T13:55:20.578Z,8.70
2023-02-14T14:00:29.082Z,8.93
2023-02-14T14:05:30.687Z,8.27
2023-02-14T14:10:44.886Z,8.13
2023-02-14T14:16:23.235Z,7.55
2023-02-14T14:21:32.037Z,7.95
2023-02-14T14:26:40.451Z,9.38
2023-02-14T14:31:42.280Z,10.55
2023-02-14T14:36:44.023Z,10.48
2023-02-14T14:41:45.604Z,10.40
2023-02-14T14:46:47.236Z,12.95
2023-02-14T14:51:49.032Z,12.65
2023-02-14T14:57:01.627Z,13.65
2023-02-14T15:02:05.444Z,13.45
2023-02-14T15:07:33.821Z,14.23
2023-02-14T15:12:54.221Z,13.50
2023-02-14T15:17:55.998Z,13.25
2023-02-14T15:22:57.755Z,13.30
2023-02-14T15:27:59.393Z,15.40
2023-02-14T15:33:03.425Z,14.57
2023-02-14T15:38:07.039Z,15.45
2023-02-14T15:43:17.692Z,14.63
2023-02-14T15:48:24.316Z,14.90
2023-02-14T15:54:05.388Z,15.48
2023-02-14T15:59:14.008Z,15.93
2023-02-14T16:04:15.575Z,16.83
2023-02-14T16:09:28.465Z,15.70
2023-02-14T16:14:35.628Z,15.70
2023-02-14T16:19:42.633Z,16.42
2023-02-14T16:24:44.248Z,15.40
2023-02-14T16:29:45.777Z,15.05
2023-02-14T16:34:48.245Z,16.55
2023-02-14T16:39:51.473Z,15.93
2023-02-14T16:44:53.228Z,15.90
2023-02-14T16:49:54.818Z,15.20
2023-02-14T16:54:57.183Z,15.52
2023-02-14T16:59:58.736Z,14.88
2023-02-14T17:05:00.361Z,16.10
2023-02-14T17:10:07.938Z,16.73
2023-02-14T17:15:13.200Z,15.93
2023-02-14T17:20:14.850Z,15.93
2023-02-14T17:25:16.430Z,17.58
2023-02-14T17:30:18.305Z,16.65
2023-02-14T17:35:20.021Z,16.63
2023-02-14T17:40:21.591Z,18.70
2023-02-14T17:45:23.220Z,17.92
2023-02-14T17:50:24.880Z,17.25
2023-02-14T17:55:26.425Z,16.95
2023-02-14T18:00:28.331Z,17.92
2023-02-14T18:05:30.045Z,17.77
2023-02-14T18:10:31.709Z,17.92
2023-02-14T18:15:33.260Z,18.08
2023-02-14T18:20:34.837Z,18.23
2023-02-14T18:25:36.407Z,18.90
2023-02-14T18:30:37.999Z,19.23
2023-02-14T18:35:39.708Z,19.35
2023-02-14T18:40:42.783Z,19.05
2023-02-14T18:45:44.361Z,18.25
2023-02-14T18:50:45.975Z,18.13
2023-02-14T18:55:47.945Z,17.90
2023-02-14T19:00:49.822Z,18.00
2023-02-14T19:05:53.129Z,17.90
2023-02-14T19:10:54.657Z,18.45
2023-02-14T19:15:56.451Z,17.75
2023-02-14T19:20:58.205Z,19.10
2023-02-14T19:26:09.232Z,20.77
2023-02-14T19:31:11.249Z,20.75
2023-02-14T19:36:14.909Z,20.85
2023-02-14T19:41:24.042Z,20.42
2023-02-14T19:46:26.226Z,20.48
2023-02-14T19:51:32.515Z,20.80
2023-02-14T19:56:36.723Z,21.35
2023-02-14T20:01:42.241Z,21.58
2023-02-14T20:06:44.956Z,21.83
2023-02-14T20:11:51.614Z,21.63
2023-02-14T20:16:55.264Z,20.63
2023-02-14T20:21:56.917Z,20.33
2023-02-14T20:27:00.299Z,21.48
2023-02-14T20:32:04.789Z,22.47
2023-02-14T20:37:06.548Z,22.63
2023-02-14T20:42:08.588Z,23.52
2023-02-14T20:47:10.913Z,23.70
2023-02-14T20:52:12.589Z,23.17
2023-02-14T20:57:14.123Z,23.60
2023-02-14T21:02:15.918Z,23.83
2023-02-14T21:07:17.576Z,24.17
2023-02-14T21:12:19.248Z,24.80
2023-02-14T21:17:20.808Z,25.77
2023-02-14T21:22:22.375Z,23.23
2023-02-14T21:27:23.980Z,25.45
2023-02-14T21:32:28.319Z,23.97
2023-02-14T21:37:29.990Z,24.23
2023-02-14T21:42:31.570Z,26.17
2023-02-14T21:47:36.766Z,25.00
2023-02-14T21:52:38.344Z,25.87
2023-02-14T21:57:39.873Z,24.33
2023-02-14T22:02:41.672Z,26.13
2023-02-14T22:07:43.489Z,24.73
2023-02-14T22:12:45.075Z,24.97
2023-02-14T22:17:46.678Z,23.73
2023-02-14T22:22:48.253Z,23.27
2023-02-14T22:27:49.829Z,24.80
2023-02-14T22:32:51.395Z,25.07
2023-02-14T22:37:53.045Z,24.73
2023-02-14T22:42:54.573Z,25.57
2023-02-14T22:47:56.562Z,24.10
2023-02-14T22:52:58.101Z,25.23
2023-02-14T22:58:01.150Z,24.43
2023-02-14T23:03:02.857Z,24.13
2023-02-14T23:08:04.465Z,23.90
2023-02-14T23:13:24.659Z,24.27
2023-02-14T23:18:44.605Z,25.17
2023-02-14T23:23:46.170Z,22.80
2023-02-14T23:28:47.752Z,23.83
2023-02-14T23:33:52.193Z,23.10
2023-02-14T23:38:53.739Z,23.60
2023-02-14T23:43:55.314Z,24.93
2023-02-14T23:48:56.895Z,24.30
2023-02-14T23:53:58.454Z,22.50
2023-02-14T23:59:00.033Z,23.70
